sensor_id;sensor_type;location;lat;lon;timestamp;P1;P4;P2;P0;N10;N4;N25;N1;N05;TS
78535;SPS30;67829;51.968;5.684;2023-12-20T00:00:54;3.6;3.6;3.4;3.1;;;;5.0;6.0;
78535;SPS30;67829;51.968;5.684;2023-12-20T00:03:22;3.9;3.8;3.6;3.2;;;;5.0;6.0;
78535;SPS30;67829;51.968;5.684;2023-12-20T00:05:51;3.8;3.7;3.5;3.1;;;;5.0;6.0;
78535;SPS30;67829;51.968;5.684;2023-12-20T00:08:21;4.3;4.2;3.8;3.3;;;;5.0;6.0;
78535;SPS30;67829;51.968;5.684;2023-12-20T00:10:50;3.6;3.5;3.2;2.8;;;;6.0;5.0;
78535;SPS30;67829;51.968;5.684;2023-12-20T00:13:18;4.3;4.1;3.8;3.2;;;;6.0;5.0;
78535;SPS30;67829;51.968;5.684;2023-12-20T00:15:47;3.1;3.0;2.7;2.3;;;;6.0;5.0;
78535;SPS30;67829;51.968;5.684;2023-12-20T00:18:15;4.1;3.9;3.6;3.0;;;;6.0;5.0;
78535;SPS30;67829;51.968;5.684;2023-12-20T00:20:43;4.4;4.2;3.8;3.1;;;;6.0;5.0;
78535;SPS30;67829;51.968;5.684;2023-12-20T00:23:12;3.9;3.7;3.4;2.9;;;;6.0;5.0;
78535;SPS30;67829;51.968;5.684;2023-12-20T00:25:42;4.6;4.4;4.0;3.3;;;;6.0;5.0;
78535;SPS30;67829;51.968;5.684;2023-12-20T00:28:13;3.5;3.3;3.0;2.5;;;;6.0;5.0;
78535;SPS30;67829;51.968;5.684;2023-12-20T00:30:41;4.3;4.1;3.7;3.1;;;;6.0;5.0;
78535;SPS30;67829;51.968;5.684;2023-12-20T00:33:10;4.1;3.9;3.5;2.9;;;;6.0;5.0;
78535;SPS30;67829;51.968;5.684;2023-12-20T00:35:38;4.2;4.0;3.6;2.9;;;;6.0;5.0;
78535;SPS30;67829;51.968;5.684;2023-12-20T00:38:07;4.6;4.4;4.0;3.4;;;;6.0;6.0;
78535;SPS30;67829;51.968;5.684;2023-12-20T00:40:37;4.6;4.4;3.9;3.1;;;;6.0;6.0;
78535;SPS30;67829;51.968;5.684;2023-12-20T00:43:06;3.9;3.7;3.3;2.7;;;;6.0;6.0;
78535;SPS30;67829;51.968;5.684;2023-12-20T00:45:34;3.8;3.6;3.3;2.7;;;;6.0;6.0;
78535;SPS30;67829;51.968;5.684;2023-12-20T00:48:06;4.8;4.6;4.1;3.4;;;;6.0;7.0;
78535;SPS30;67829;51.968;5.684;2023-12-20T00:50:35;4.1;3.9;3.5;2.9;;;;6.0;7.0;
78535;SPS30;67829;51.968;5.684;2023-12-20T00:53:03;4.5;4.4;4.0;3.4;;;;6.0;7.0;
78535;SPS30;67829;51.968;5.684;2023-12-20T00:55:32;4.7;4.5;4.0;3.3;;;;6.0;8.0;
78535;SPS30;67829;51.968;5.684;2023-12-20T00:58:00;4.5;4.3;3.9;3.2;;;;7.0;8.0;
78535;SPS30;67829;51.968;5.684;2023-12-20T01:00:29;4.8;4.6;4.2;3.6;;;;7.0;8.0;
78535;SPS30;67829;51.968;5.684;2023-12-20T01:02:57;4.7;4.5;4.1;3.4;;;;7.0;8.0;
78535;SPS30;67829;51.968;5.684;2023-12-20T01:05:26;5.0;4.7;4.3;3.5;;;;7.0;8.0;
78535;SPS30;67829;51.968;5.684;2023-12-20T01:07:55;5.0;4.8;4.3;3.6;;;;7.0;8.0;
78535;SPS30;67829;51.968;5.684;2023-12-20T01:10:23;5.0;4.7;4.2;3.4;;;;7.0;8.0;
78535;SPS30;67829;51.968;5.684;2023-12-20T01:12:54;4.8;4.6;4.1;3.3;;;;7.0;8.0;
78535;SPS30;67829;51.968;5.684;2023-12-20T01:15:23;4.6;4.3;3.8;3.0;;;;7.0;8.0;
78535;SPS30;67829;51.968;5.684;2023-12-20T01:17:51;4.2;4.0;3.5;2.8;;;;7.0;8.0;
78535;SPS30;67829;51.968;5.684;2023-12-20T01:20:20;4.0;3.8;3.4;2.8;;;;7.0;8.0;
78535;SPS30;67829;51.968;5.684;2023-12-20T01:22:49;4.5;4.3;3.7;2.9;;;;7.0;7.0;
78535;SPS30;67829;51.968;5.684;2023-12-20T01:25:17;5.2;4.9;4.2;3.3;;;;7.0;8.0;
78535;SPS30;67829;51.968;5.684;2023-12-20T01:27:46;4.3;4.0;3.6;2.9;;;;8.0;8.0;
78535;SPS30;67829;51.968;5.684;2023-12-20T01:30:15;4.6;4.3;3.8;2.9;;;;8.0;8.0;
78535;SPS30;67829;51.968;5.684;2023-12-20T01:32:44;5.9;5.5;4.7;3.5;;;;8.0;8.0;
78535;SPS30;67829;51.968;5.684;2023-12-20T01:35:13;5.8;5.4;4.5;3.3;;;;8.0;8.0;
78535;SPS30;67829;51.968;5.684;2023-12-20T01:37:41;6.4;6.0;5.1;3.8;;;;8.0;8.0;
78535;SPS30;67829;51.968;5.684;2023-12-20T01:40:10;4.5;4.1;3.5;2.6;;;;8.0;8.0;
78535;SPS30;67829;51.968;5.684;2023-12-20T01:42:39;4.5;4.2;3.6;2.6;;;;8.0;8.0;
78535;SPS30;67829;51.968;5.684;2023-12-20T01:45:08;4.8;4.4;3.6;2.6;;;;8.0;8.0;
78535;SPS30;67829;51.968;5.684;2023-12-20T01:47:37;5.3;5.0;4.1;2.9;;;;8.0;8.0;
78535;SPS30;67829;51.968;5.684;2023-12-20T01:50:07;5.8;5.3;4.4;3.1;;;;8.0;7.0;
78535;SPS30;67829;51.968;5.684;2023-12-20T01:52:37;5.1;4.7;3.9;2.7;;;;8.0;8.0;
78535;SPS30;67829;51.968;5.684;2023-12-20T01:55:08;5.0;4.6;3.8;2.7;;;;8.0;8.0;
78535;SPS30;67829;51.968;5.684;2023-12-20T01:57:39;4.6;4.3;3.6;2.7;;;;8.0;9.0;
78535;SPS30;67829;51.968;5.684;2023-12-20T02:00:09;5.4;5.0;4.2;3.0;;;;8.0;10.0;
78535;SPS30;67829;51.968;5.684;2023-12-20T02:02:40;5.0;4.6;3.8;2.6;;;;8.0;11.0;
78535;SPS30;67829;51.968;5.684;2023-12-20T02:05:10;4.4;4.1;3.5;2.7;;;;8.0;12.0;
78535;SPS30;67829;51.968;5.684;2023-12-20T02:07:40;4.3;4.1;3.5;2.6;;;;8.0;14.0;
78535;SPS30;67829;51.968;5.684;2023-12-20T02:10:09;3.9;3.7;3.1;2.3;;;;8.0;15.0;
78535;SPS30;67829;51.968;5.684;2023-12-20T02:12:39;4.6;4.2;3.5;2.5;;;;8.0;16.0;
78535;SPS30;67829;51.968;5.684;2023-12-20T02:15:08;4.4;4.0;3.3;2.4;;;;8.0;17.0;
78535;SPS30;67829;51.968;5.684;2023-12-20T02:17:38;5.5;5.0;4.1;2.8;;;;8.0;17.0;
78535;SPS30;67829;51.968;5.684;2023-12-20T02:20:08;4.9;4.5;3.7;2.6;;;;8.0;17.0;
78535;SPS30;67829;51.968;5.684;2023-12-20T02:22:37;4.8;4.5;3.8;2.8;;;;8.0;17.0;
78535;SPS30;67829;51.968;5.684;2023-12-20T02:25:08;4.7;4.4;3.6;2.6;;;;7.0;18.0;
78535;SPS30;67829;51.968;5.684;2023-12-20T02:27:37;5.8;5.4;4.4;3.1;;;;7.0;19.0;
78535;SPS30;67829;51.968;5.684;2023-12-20T02:30:09;5.7;5.2;4.3;3.0;;;;7.0;20.0;
78535;SPS30;67829;51.968;5.684;2023-12-20T02:32:39;6.8;6.3;5.2;3.7;;;;7.0;19.0;
78535;SPS30;67829;51.968;5.684;2023-12-20T02:35:08;4.5;4.1;3.4;2.4;;;;7.0;19.0;
78535;SPS30;67829;51.968;5.684;2023-12-20T02:37:36;5.2;4.8;4.0;2.9;;;;7.0;20.0;
78535;SPS30;67829;51.968;5.684;2023-12-20T02:40:06;4.8;4.5;3.7;2.7;;;;7.0;21.0;
78535;SPS30;67829;51.968;5.684;2023-12-20T02:42:35;5.1;4.7;3.8;2.6;;;;7.0;22.0;
78535;SPS30;67829;51.968;5.684;2023-12-20T02:45:05;5.8;5.3;4.4;3.0;;;;7.0;23.0;
78535;SPS30;67829;51.968;5.684;2023-12-20T02:47:34;5.6;5.2;4.3;3.0;;;;7.0;24.0;
78535;SPS30;67829;51.968;5.684;2023-12-20T02:50:03;5.0;4.7;3.9;2.8;;;;7.0;25.0;
78535;SPS30;67829;51.968;5.684;2023-12-20T02:52:31;5.4;5.0;4.1;2.8;;;;7.0;27.0;
78535;SPS30;67829;51.968;5.684;2023-12-20T02:55:00;5.2;4.8;3.9;2.7;;;;6.0;29.0;
78535;SPS30;67829;51.968;5.684;2023-12-20T02:57:28;5.4;4.9;4.0;2.8;;;;6.0;30.0;
78535;SPS30;67829;51.968;5.684;2023-12-20T02:59:58;5.3;4.9;4.0;2.8;;;;6.0;30.0;
78535;SPS30;67829;51.968;5.684;2023-12-20T03:02:27;5.4;4.9;4.0;2.7;;;;6.0;31.0;
78535;SPS30;67829;51.968;5.684;2023-12-20T03:04:55;4.8;4.4;3.7;2.7;;;;6.0;31.0;
78535;SPS30;67829;51.968;5.684;2023-12-20T03:07:26;5.5;5.1;4.3;3.1;;;;6.0;31.0;
78535;SPS30;67829;51.968;5.684;2023-12-20T03:09:55;5.7;5.3;4.4;3.2;;;;6.0;29.0;
78535;SPS30;67829;51.968;5.684;2023-12-20T03:12:23;5.1;4.7;3.9;2.8;;;;6.0;28.0;
78535;SPS30;67829;51.968;5.684;2023-12-20T03:14:53;5.6;5.2;4.3;3.1;;;;6.0;27.0;
78535;SPS30;67829;51.968;5.684;2023-12-20T03:17:22;5.4;5.0;4.2;3.1;;;;6.0;27.0;
78535;SPS30;67829;51.968;5.684;2023-12-20T03:19:50;6.0;5.6;4.7;3.4;;;;6.0;26.0;
78535;SPS30;67829;51.968;5.684;2023-12-20T03:22:19;5.3;4.9;4.1;3.0;;;;6.0;25.0;
78535;SPS30;67829;51.968;5.684;2023-12-20T03:24:47;5.7;5.2;4.4;3.1;;;;6.0;26.0;
78535;SPS30;67829;51.968;5.684;2023-12-20T03:27:16;5.9;5.5;4.5;3.2;;;;6.0;25.0;
78535;SPS30;67829;51.968;5.684;2023-12-20T03:29:44;6.2;5.7;4.7;3.2;;;;6.0;25.0;
78535;SPS30;67829;51.968;5.684;2023-12-20T03:32:12;6.0;5.5;4.5;3.1;;;;6.0;25.0;
78535;SPS30;67829;51.968;5.684;2023-12-20T03:34:41;6.4;6.0;5.0;3.7;;;;6.0;25.0;
78535;SPS30;67829;51.968;5.684;2023-12-20T03:37:09;5.3;4.9;4.1;3.0;;;;6.0;25.0;
78535;SPS30;67829;51.968;5.684;2023-12-20T03:39:38;6.8;6.3;5.3;3.9;;;;6.0;26.0;
78535;SPS30;67829;51.968;5.684;2023-12-20T03:42:07;6.0;5.6;4.7;3.5;;;;6.0;27.0;
78535;SPS30;67829;51.968;5.684;2023-12-20T03:44:37;7.0;6.4;5.3;3.7;;;;6.0;28.0;
78535;SPS30;67829;51.968;5.684;2023-12-20T03:47:07;6.7;6.2;5.1;3.5;;;;6.0;28.0;
78535;SPS30;67829;51.968;5.684;2023-12-20T03:49:35;6.4;5.9;4.8;3.4;;;;6.0;28.0;
78535;SPS30;67829;51.968;5.684;2023-12-20T03:52:06;6.7;6.2;5.1;3.6;;;;6.0;27.0;
78535;SPS30;67829;51.968;5.684;2023-12-20T03:54:34;5.9;5.5;4.6;3.3;;;;6.0;27.0;
78535;SPS30;67829;51.968;5.684;2023-12-20T03:57:04;6.9;6.4;5.2;3.7;;;;6.0;27.0;
78535;SPS30;67829;51.968;5.684;2023-12-20T03:59:36;6.9;6.3;5.0;3.4;;;;6.0;28.0;
78535;SPS30;67829;51.968;5.684;2023-12-20T04:02:05;7.2;6.6;5.4;3.7;;;;6.0;27.0;
78535;SPS30;67829;51.968;5.684;2023-12-20T04:04:34;5.1;4.7;3.9;2.8;;;;6.0;27.0;
78535;SPS30;67829;51.968;5.684;2023-12-20T04:07:02;5.1;4.7;3.9;2.7;;;;6.0;26.0;
78535;SPS30;67829;51.968;5.684;2023-12-20T04:09:31;5.9;5.4;4.3;2.9;;;;6.0;25.0;
78535;SPS30;67829;51.968;5.684;2023-12-20T04:11:59;7.1;6.5;5.3;3.6;;;;6.0;24.0;
78535;SPS30;67829;51.968;5.684;2023-12-20T04:14:28;7.4;6.8;5.4;3.6;;;;6.0;24.0;
78535;SPS30;67829;51.968;5.684;2023-12-20T04:16:57;6.9;6.3;5.1;3.4;;;;6.0;25.0;
78535;SPS30;67829;51.968;5.684;2023-12-20T04:19:26;7.2;6.6;5.3;3.5;;;;6.0;25.0;
78535;SPS30;67829;51.968;5.684;2023-12-20T04:21:54;7.1;6.5;5.3;3.6;;;;6.0;23.0;
78535;SPS30;67829;51.968;5.684;2023-12-20T04:24:23;6.7;6.2;4.9;3.3;;;;6.0;19.0;
78535;SPS30;67829;51.968;5.684;2023-12-20T04:26:51;5.7;5.3;4.3;2.9;;;;6.0;18.0;
78535;SPS30;67829;51.968;5.684;2023-12-20T04:29:20;7.0;6.4;5.1;3.4;;;;6.0;18.0;
78535;SPS30;67829;51.968;5.684;2023-12-20T04:31:48;6.3;5.8;4.6;3.0;;;;6.0;17.0;
78535;SPS30;67829;51.968;5.684;2023-12-20T04:34:18;6.4;5.8;4.6;2.9;;;;6.0;15.0;
78535;SPS30;67829;51.968;5.684;2023-12-20T04:36:46;7.1;6.4;5.1;3.2;;;;6.0;14.0;
78535;SPS30;67829;51.968;5.684;2023-12-20T04:39:15;6.9;6.3;4.9;3.0;;;;6.0;14.0;
78535;SPS30;67829;51.968;5.684;2023-12-20T04:41:44;7.1;6.4;5.0;3.2;;;;6.0;14.0;
78535;SPS30;67829;51.968;5.684;2023-12-20T04:44:13;7.5;6.8;5.2;3.1;;;;6.0;13.0;
78535;SPS30;67829;51.968;5.684;2023-12-20T04:46:42;7.0;6.4;5.1;3.3;;;;6.0;14.0;
78535;SPS30;67829;51.968;5.684;2023-12-20T04:49:11;6.1;5.6;4.5;3.0;;;;6.0;15.0;
78535;SPS30;67829;51.968;5.684;2023-12-20T04:51:41;7.5;6.8;5.4;3.4;;;;6.0;15.0;
78535;SPS30;67829;51.968;5.684;2023-12-20T04:54:10;6.8;6.2;4.8;3.0;;;;6.0;15.0;
78535;SPS30;67829;51.968;5.684;2023-12-20T04:56:39;7.6;6.8;5.3;3.2;;;;6.0;15.0;
78535;SPS30;67829;51.968;5.684;2023-12-20T04:59:08;7.9;7.2;5.5;3.3;;;;6.0;15.0;
78535;SPS30;67829;51.968;5.684;2023-12-20T05:01:36;7.2;6.5;5.0;3.1;;;;6.0;14.0;
78535;SPS30;67829;51.968;5.684;2023-12-20T05:04:05;6.6;6.0;4.7;2.9;;;;6.0;14.0;
78535;SPS30;67829;51.968;5.684;2023-12-20T05:06:34;7.0;6.3;4.9;2.9;;;;6.0;14.0;
78535;SPS30;67829;51.968;5.684;2023-12-20T05:09:02;8.0;7.3;5.6;3.4;;;;6.0;14.0;
78535;SPS30;67829;51.968;5.684;2023-12-20T05:11:31;9.6;8.6;6.5;3.8;;;;6.0;13.0;
78535;SPS30;67829;51.968;5.684;2023-12-20T05:13:59;9.7;8.7;6.6;3.8;;;;6.0;14.0;
78535;SPS30;67829;51.968;5.684;2023-12-20T05:16:27;8.0;7.2;5.5;3.2;;;;6.0;14.0;
78535;SPS30;67829;51.968;5.684;2023-12-20T05:18:56;8.1;7.3;5.7;3.5;;;;6.0;14.0;
78535;SPS30;67829;51.968;5.684;2023-12-20T05:21:26;7.1;6.4;5.1;3.2;;;;6.0;14.0;
78535;SPS30;67829;51.968;5.684;2023-12-20T05:23:57;6.5;5.9;4.7;3.1;;;;6.0;14.0;
78535;SPS30;67829;51.968;5.684;2023-12-20T05:26:25;8.3;7.4;5.7;3.4;;;;6.0;14.0;
78535;SPS30;67829;51.968;5.684;2023-12-20T05:28:55;6.9;6.3;5.0;3.2;;;;5.0;14.0;
78535;SPS30;67829;51.968;5.684;2023-12-20T05:31:24;9.2;8.3;6.3;3.8;;;;5.0;14.0;
78535;SPS30;67829;51.968;5.684;2023-12-20T05:33:52;8.7;7.8;6.0;3.5;;;;5.0;14.0;
78535;SPS30;67829;51.968;5.684;2023-12-20T05:36:21;8.1;7.3;5.7;3.5;;;;5.0;14.0;
78535;SPS30;67829;51.968;5.684;2023-12-20T05:38:49;6.7;6.1;4.7;2.9;;;;5.0;16.0;
78535;SPS30;67829;51.968;5.684;2023-12-20T05:41:18;7.7;7.0;5.4;3.4;;;;5.0;17.0;
78535;SPS30;67829;51.968;5.684;2023-12-20T05:43:47;8.4;7.5;5.8;3.4;;;;5.0;17.0;
78535;SPS30;67829;51.968;5.684;2023-12-20T05:46:16;7.6;6.8;5.3;3.2;;;;5.0;17.0;
78535;SPS30;67829;51.968;5.684;2023-12-20T05:48:45;7.2;6.4;4.9;2.9;;;;5.0;17.0;
78535;SPS30;67829;51.968;5.684;2023-12-20T05:51:14;8.5;7.6;5.7;3.2;;;;5.0;17.0;
78535;SPS30;67829;51.968;5.684;2023-12-20T05:53:43;8.1;7.3;5.6;3.3;;;;5.0;17.0;
78535;SPS30;67829;51.968;5.684;2023-12-20T05:56:12;8.2;7.4;5.8;3.6;;;;5.0;17.0;
78535;SPS30;67829;51.968;5.684;2023-12-20T05:58:41;7.5;6.8;5.3;3.3;;;;5.0;17.0;
78535;SPS30;67829;51.968;5.684;2023-12-20T06:01:09;9.1;8.2;6.4;3.9;;;;5.0;17.0;
78535;SPS30;67829;51.968;5.684;2023-12-20T06:03:38;6.7;6.1;4.7;2.8;;;;5.0;18.0;
78535;SPS30;67829;51.968;5.684;2023-12-20T06:06:10;7.0;6.3;5.0;3.1;;;;5.0;18.0;
78535;SPS30;67829;51.968;5.684;2023-12-20T06:08:39;7.0;6.4;5.0;3.3;;;;5.0;19.0;
78535;SPS30;67829;51.968;5.684;2023-12-20T06:11:09;6.9;6.2;4.9;3.1;;;;5.0;21.0;
78535;SPS30;67829;51.968;5.684;2023-12-20T06:13:39;7.5;6.8;5.3;3.3;;;;5.0;22.0;
78535;SPS30;67829;51.968;5.684;2023-12-20T06:16:07;8.5;7.7;5.9;3.7;;;;5.0;25.0;
78535;SPS30;67829;51.968;5.684;2023-12-20T06:18:36;7.3;6.6;5.1;3.1;;;;5.0;26.0;
78535;SPS30;67829;51.968;5.684;2023-12-20T06:21:05;8.2;7.4;5.7;3.4;;;;5.0;28.0;
78535;SPS30;67829;51.968;5.684;2023-12-20T06:23:39;8.0;7.2;5.5;3.3;;;;4.0;29.0;
78535;SPS30;67829;51.968;5.684;2023-12-20T06:26:07;7.2;6.5;5.0;3.0;;;;4.0;29.0;
78535;SPS30;67829;51.968;5.684;2023-12-20T06:28:35;7.5;6.8;5.3;3.4;;;;4.0;30.0;
78535;SPS30;67829;51.968;5.684;2023-12-20T06:31:04;7.4;6.7;5.3;3.4;;;;4.0;30.0;
78535;SPS30;67829;51.968;5.684;2023-12-20T06:33:33;8.0;7.2;5.6;3.4;;;;4.0;32.0;
78535;SPS30;67829;51.968;5.684;2023-12-20T06:36:07;6.3;5.8;4.5;2.9;;;;4.0;32.0;
78535;SPS30;67829;51.968;5.684;2023-12-20T06:38:35;8.4;7.7;6.0;3.8;;;;4.0;32.0;
78535;SPS30;67829;51.968;5.684;2023-12-20T06:41:05;6.8;6.2;4.8;3.0;;;;4.0;33.0;
78535;SPS30;67829;51.968;5.684;2023-12-20T06:43:33;5.9;5.4;4.2;2.7;;;;4.0;34.0;
78535;SPS30;67829;51.968;5.684;2023-12-20T06:46:02;6.8;6.2;4.9;3.2;;;;4.0;39.0;
78535;SPS30;67829;51.968;5.684;2023-12-20T06:48:31;5.7;5.3;4.3;3.0;;;;4.0;43.0;
78535;SPS30;67829;51.968;5.684;2023-12-20T06:51:01;6.9;6.4;5.1;3.5;;;;4.0;55.0;
78535;SPS30;67829;51.968;5.684;2023-12-20T06:53:30;7.9;7.2;5.7;3.8;;;;4.0;74.0;
78535;SPS30;67829;51.968;5.684;2023-12-20T06:55:59;6.9;6.3;5.1;3.5;;;;4.0;90.0;
78535;SPS30;67829;51.968;5.684;2023-12-20T06:58:28;6.9;6.3;5.1;3.5;;;;3.0;97.0;
78535;SPS30;67829;51.968;5.684;2023-12-20T07:00:57;7.4;6.8;5.5;3.7;;;;3.0;93.0;
78535;SPS30;67829;51.968;5.684;2023-12-20T07:03:25;8.1;7.5;6.0;4.0;;;;3.0;97.0;
78535;SPS30;67829;51.968;5.684;2023-12-20T07:05:54;8.1;7.4;5.8;3.7;;;;3.0;103.0;
78535;SPS30;67829;51.968;5.684;2023-12-20T07:08:22;6.7;6.1;4.9;3.2;;;;3.0;105.0;
78535;SPS30;67829;51.968;5.684;2023-12-20T07:10:51;6.7;6.2;5.0;3.5;;;;3.0;105.0;
78535;SPS30;67829;51.968;5.684;2023-12-20T07:13:19;7.2;6.6;5.3;3.6;;;;3.0;103.0;
78535;SPS30;67829;51.968;5.684;2023-12-20T07:15:48;7.2;6.6;5.3;3.6;;;;3.0;105.0;
78535;SPS30;67829;51.968;5.684;2023-12-20T07:18:17;7.0;6.4;5.2;3.5;;;;3.0;104.0;
78535;SPS30;67829;51.968;5.684;2023-12-20T07:20:46;5.9;5.4;4.4;3.0;;;;3.0;101.0;
78535;SPS30;67829;51.968;5.684;2023-12-20T07:23:14;7.8;7.1;5.7;3.7;;;;3.0;100.0;
78535;SPS30;67829;51.968;5.684;2023-12-20T07:25:42;7.6;6.9;5.5;3.6;;;;3.0;103.0;
78535;SPS30;67829;51.968;5.684;2023-12-20T07:28:11;6.4;5.9;4.7;3.2;;;;3.0;103.0;
78535;SPS30;67829;51.968;5.684;2023-12-20T07:30:39;7.8;7.1;5.6;3.6;;;;3.0;99.0;
78535;SPS30;67829;51.968;5.684;2023-12-20T07:33:08;6.3;5.7;4.5;3.0;;;;3.0;93.0;
78535;SPS30;67829;51.968;5.684;2023-12-20T07:35:38;8.6;7.8;6.2;4.0;;;;3.0;95.0;
78535;SPS30;67829;51.968;5.684;2023-12-20T07:38:07;7.0;6.4;5.0;3.2;;;;2.0;93.0;
78535;SPS30;67829;51.968;5.684;2023-12-20T07:40:35;7.4;6.7;5.4;3.5;;;;2.0;91.0;
78535;SPS30;67829;51.968;5.684;2023-12-20T07:43:05;7.5;6.8;5.4;3.6;;;;2.0;94.0;
78535;SPS30;67829;51.968;5.684;2023-12-20T07:45:33;7.0;6.5;5.3;3.6;;;;2.0;107.0;
78535;SPS30;67829;51.968;5.684;2023-12-20T07:48:02;6.8;6.2;4.9;3.2;;;;2.0;110.0;
78535;SPS30;67829;51.968;5.684;2023-12-20T07:50:31;9.1;8.3;6.5;4.0;;;;2.0;111.0;
78535;SPS30;67829;51.968;5.684;2023-12-20T07:53:00;6.7;6.1;4.8;3.1;;;;2.0;110.0;
78535;SPS30;67829;51.968;5.684;2023-12-20T07:55:30;7.3;6.6;5.3;3.4;;;;2.0;112.0;
78535;SPS30;67829;51.968;5.684;2023-12-20T07:57:59;7.9;7.1;5.5;3.4;;;;2.0;113.0;
78535;SPS30;67829;51.968;5.684;2023-12-20T08:00:28;7.7;7.0;5.5;3.5;;;;2.0;118.0;
78535;SPS30;67829;51.968;5.684;2023-12-20T08:02:57;8.0;7.3;5.8;3.7;;;;2.0;119.0;
78535;SPS30;67829;51.968;5.684;2023-12-20T08:05:25;8.2;7.5;5.8;3.7;;;;2.0;119.0;
78535;SPS30;67829;51.968;5.684;2023-12-20T08:07:54;8.5;7.7;6.0;3.8;;;;2.0;118.0;
78535;SPS30;67829;51.968;5.684;2023-12-20T08:10:22;8.3;7.5;5.8;3.5;;;;2.0;118.0;
78535;SPS30;67829;51.968;5.684;2023-12-20T08:12:51;8.2;7.4;5.8;3.6;;;;2.0;119.0;
78535;SPS30;67829;51.968;5.684;2023-12-20T08:15:20;6.2;5.6;4.4;2.8;;;;2.0;114.0;
78535;SPS30;67829;51.968;5.684;2023-12-20T08:17:48;7.2;6.5;5.1;3.3;;;;2.0;107.0;
78535;SPS30;67829;51.968;5.684;2023-12-20T08:20:17;9.5;8.6;6.6;4.1;;;;2.0;105.0;
78535;SPS30;67829;51.968;5.684;2023-12-20T08:22:45;7.5;6.8;5.2;3.2;;;;2.0;104.0;
78535;SPS30;67829;51.968;5.684;2023-12-20T08:25:14;6.5;5.9;4.6;2.8;;;;2.0;105.0;
78535;SPS30;67829;51.968;5.684;2023-12-20T08:27:42;8.5;7.7;6.0;3.7;;;;2.0;106.0;
78535;SPS30;67829;51.968;5.684;2023-12-20T08:30:11;6.7;6.1;4.8;3.0;;;;2.0;107.0;
78535;SPS30;67829;51.968;5.684;2023-12-20T08:32:40;7.4;6.6;5.1;3.0;;;;2.0;103.0;
78535;SPS30;67829;51.968;5.684;2023-12-20T08:35:09;7.2;6.6;5.2;3.4;;;;2.0;97.0;
78535;SPS30;67829;51.968;5.684;2023-12-20T08:37:37;5.7;5.2;4.1;2.6;;;;2.0;94.0;
78535;SPS30;67829;51.968;5.684;2023-12-20T08:40:07;7.2;6.5;5.0;3.1;;;;2.0;96.0;
78535;SPS30;67829;51.968;5.684;2023-12-20T08:42:36;7.9;7.1;5.4;3.2;;;;2.0;97.0;
78535;SPS30;67829;51.968;5.684;2023-12-20T08:45:05;8.8;7.8;5.9;3.3;;;;2.0;88.0;
78535;SPS30;67829;51.968;5.684;2023-12-20T08:47:34;7.6;6.8;5.2;3.0;;;;2.0;89.0;
78535;SPS30;67829;51.968;5.684;2023-12-20T08:50:03;7.5;6.8;5.2;3.1;;;;2.0;90.0;
78535;SPS30;67829;51.968;5.684;2023-12-20T08:52:32;8.2;7.4;5.6;3.4;;;;2.0;92.0;
78535;SPS30;67829;51.968;5.684;2023-12-20T08:55:01;8.2;7.4;5.6;3.3;;;;2.0;93.0;
78535;SPS30;67829;51.968;5.684;2023-12-20T08:57:29;9.5;8.5;6.4;3.7;;;;2.0;94.0;
78535;SPS30;67829;51.968;5.684;2023-12-20T08:59:58;9.4;8.4;6.4;3.8;;;;2.0;94.0;
78535;SPS30;67829;51.968;5.684;2023-12-20T09:02:26;9.8;8.8;6.6;3.9;;;;2.0;95.0;
78535;SPS30;67829;51.968;5.684;2023-12-20T09:04:55;8.3;7.5;5.7;3.3;;;;2.0;95.0;
78535;SPS30;67829;51.968;5.684;2023-12-20T09:07:24;7.7;6.9;5.2;3.1;;;;2.0;93.0;
78535;SPS30;67829;51.968;5.684;2023-12-20T09:09:56;8.7;7.9;6.0;3.6;;;;2.0;92.0;
78535;SPS30;67829;51.968;5.684;2023-12-20T09:12:26;7.3;6.6;5.0;3.0;;;;2.0;95.0;
78535;SPS30;67829;51.968;5.684;2023-12-20T09:14:55;9.0;8.1;6.1;3.5;;;;2.0;101.0;
78535;SPS30;67829;51.968;5.684;2023-12-20T09:17:28;7.9;7.1;5.5;3.2;;;;2.0;103.0;
78535;SPS30;67829;51.968;5.684;2023-12-20T09:19:57;7.0;6.3;4.9;3.1;;;;2.0;104.0;
78535;SPS30;67829;51.968;5.684;2023-12-20T09:22:28;7.1;6.4;5.0;3.1;;;;2.0;105.0;
78535;SPS30;67829;51.968;5.684;2023-12-20T09:24:57;8.7;7.9;6.2;3.9;;;;2.0;111.0;
78535;SPS30;67829;51.968;5.684;2023-12-20T09:27:25;7.6;6.9;5.4;3.3;;;;2.0;117.0;
78535;SPS30;67829;51.968;5.684;2023-12-20T09:29:54;8.9;8.0;6.1;3.5;;;;2.0;121.0;
78535;SPS30;67829;51.968;5.684;2023-12-20T09:32:22;9.1;8.1;6.0;3.3;;;;2.0;124.0;
78535;SPS30;67829;51.968;5.684;2023-12-20T09:34:50;8.6;7.7;5.7;3.2;;;;2.0;129.0;
78535;SPS30;67829;51.968;5.684;2023-12-20T09:37:21;8.6;7.7;5.9;3.4;;;;2.0;126.0;
78535;SPS30;67829;51.968;5.684;2023-12-20T09:39:50;7.6;6.8;5.2;3.1;;;;2.0;125.0;
78535;SPS30;67829;51.968;5.684;2023-12-20T09:42:21;8.4;7.6;5.8;3.5;;;;2.0;125.0;
78535;SPS30;67829;51.968;5.684;2023-12-20T09:44:57;8.1;7.3;5.7;3.5;;;;2.0;127.0;
78535;SPS30;67829;51.968;5.684;2023-12-20T09:47:30;8.9;8.0;6.2;3.8;;;;2.0;129.0;
78535;SPS30;67829;51.968;5.684;2023-12-20T09:49:58;8.0;7.2;5.4;3.2;;;;2.0;130.0;
78535;SPS30;67829;51.968;5.684;2023-12-20T09:52:28;8.6;7.7;5.9;3.5;;;;2.0;128.0;
78535;SPS30;67829;51.968;5.684;2023-12-20T09:54:57;9.7;8.7;6.6;3.9;;;;2.0;127.0;
78535;SPS30;67829;51.968;5.684;2023-12-20T09:57:28;7.0;6.3;4.8;2.9;;;;2.0;129.0;
78535;SPS30;67829;51.968;5.684;2023-12-20T09:59:56;8.5;7.7;6.0;3.7;;;;2.0;139.0;
78535;SPS30;67829;51.968;5.684;2023-12-20T10:02:25;6.4;5.8;4.5;2.8;;;;1.0;143.0;
78535;SPS30;67829;51.968;5.684;2023-12-20T10:04:55;9.5;8.6;6.6;3.9;;;;1.0;141.0;
78535;SPS30;67829;51.968;5.684;2023-12-20T10:07:24;8.4;7.6;6.0;3.8;;;;1.0;141.0;
78535;SPS30;67829;51.968;5.684;2023-12-20T10:09:55;8.2;7.4;5.7;3.4;;;;1.0;136.0;
78535;SPS30;67829;51.968;5.684;2023-12-20T10:12:24;5.7;5.2;4.2;2.7;;;;1.0;134.0;
78535;SPS30;67829;51.968;5.684;2023-12-20T10:14:52;8.3;7.6;6.1;4.1;;;;1.0;132.0;
78535;SPS30;67829;51.968;5.684;2023-12-20T10:17:20;7.4;6.7;5.1;3.1;;;;1.0;129.0;
78535;SPS30;67829;51.968;5.684;2023-12-20T10:19:55;9.0;8.1;6.1;3.5;;;;1.0;123.0;
78535;SPS30;67829;51.968;5.684;2023-12-20T10:22:24;7.5;6.8;5.1;2.9;;;;1.0;119.0;
78535;SPS30;67829;51.968;5.684;2023-12-20T10:24:52;7.9;7.1;5.3;3.0;;;;1.0;119.0;
78535;SPS30;67829;51.968;5.684;2023-12-20T10:27:21;6.7;6.0;4.6;2.8;;;;1.0;122.0;
78535;SPS30;67829;51.968;5.684;2023-12-20T10:29:49;6.5;5.8;4.5;2.7;;;;1.0;120.0;
78535;SPS30;67829;51.968;5.684;2023-12-20T10:32:24;7.4;6.7;5.2;3.2;;;;1.0;121.0;
78535;SPS30;67829;51.968;5.684;2023-12-20T10:34:54;6.7;6.1;4.8;3.1;;;;1.0;124.0;
78535;SPS30;67829;51.968;5.684;2023-12-20T10:37:25;6.4;5.8;4.5;2.8;;;;1.0;142.0;
78535;SPS30;67829;51.968;5.684;2023-12-20T10:39:54;8.2;7.5;5.9;3.8;;;;1.0;138.0;
78535;SPS30;67829;51.968;5.684;2023-12-20T10:42:24;7.6;6.9;5.5;3.6;;;;1.0;137.0;
78535;SPS30;67829;51.968;5.684;2023-12-20T10:44:55;5.6;5.1;4.1;2.8;;;;1.0;184.0;
78535;SPS30;67829;51.968;5.684;2023-12-20T10:47:24;6.5;5.9;4.7;3.1;;;;1.0;161.0;
78535;SPS30;67829;51.968;5.684;2023-12-20T10:49:54;6.7;6.1;4.8;3.0;;;;1.0;156.0;
78535;SPS30;67829;51.968;5.684;2023-12-20T10:52:24;6.7;6.1;4.8;3.1;;;;1.0;154.0;
78535;SPS30;67829;51.968;5.684;2023-12-20T10:54:55;6.4;5.8;4.5;2.8;;;;1.0;138.0;
78535;SPS30;67829;51.968;5.684;2023-12-20T10:57:25;6.6;6.0;4.8;3.1;;;;1.0;134.0;
78535;SPS30;67829;51.968;5.684;2023-12-20T10:59:56;5.9;5.3;4.3;2.8;;;;1.0;122.0;
78535;SPS30;67829;51.968;5.684;2023-12-20T11:02:32;5.7;5.2;4.1;2.6;;;;1.0;110.0;
78535;SPS30;67829;51.968;5.684;2023-12-20T11:05:06;7.2;6.5;5.1;3.1;;;;1.0;95.0;
78535;SPS30;67829;51.968;5.684;2023-12-20T11:07:45;7.0;6.3;5.0;3.2;;;;1.0;96.0;
78535;SPS30;67829;51.968;5.684;2023-12-20T11:10:20;8.0;7.3;5.6;3.5;;;;1.0;89.0;
78535;SPS30;67829;51.968;5.684;2023-12-20T11:12:53;6.3;5.7;4.5;2.9;;;;1.0;87.0;
78535;SPS30;67829;51.968;5.684;2023-12-20T11:15:27;6.8;6.1;4.8;3.0;;;;1.0;90.0;
78535;SPS30;67829;51.968;5.684;2023-12-20T11:17:58;7.0;6.3;4.9;3.1;;;;1.0;90.0;
78535;SPS30;67829;51.968;5.684;2023-12-20T11:20:34;7.4;6.7;5.2;3.2;;;;1.0;83.0;
78535;SPS30;67829;51.968;5.684;2023-12-20T11:23:05;8.3;7.5;5.8;3.6;;;;1.0;85.0;
78535;SPS30;67829;51.968;5.684;2023-12-20T11:25:47;5.5;5.0;4.0;2.6;;;;1.0;90.0;
78535;SPS30;67829;51.968;5.684;2023-12-20T11:28:16;6.4;5.9;4.7;3.1;;;;1.0;92.0;
78535;SPS30;67829;51.968;5.684;2023-12-20T11:30:51;6.6;6.0;4.6;2.9;;;;1.0;88.0;
78535;SPS30;67829;51.968;5.684;2023-12-20T11:33:24;8.4;7.6;5.8;3.4;;;;1.0;74.0;
78535;SPS30;67829;51.968;5.684;2023-12-20T11:35:56;7.0;6.3;4.8;2.8;;;;1.0;72.0;
78535;SPS30;67829;51.968;5.684;2023-12-20T11:38:29;7.4;6.6;4.9;2.8;;;;1.0;66.0;
78535;SPS30;67829;51.968;5.684;2023-12-20T11:41:07;8.1;7.2;5.4;3.0;;;;1.0;55.0;
78535;SPS30;67829;51.968;5.684;2023-12-20T11:43:39;6.8;6.1;4.5;2.5;;;;1.0;56.0;
78535;SPS30;67829;51.968;5.684;2023-12-20T11:46:08;5.1;4.6;3.5;2.1;;;;1.0;60.0;
78535;SPS30;67829;51.968;5.684;2023-12-20T11:48:38;6.6;5.9;4.6;2.7;;;;1.0;60.0;
78535;SPS30;67829;51.968;5.684;2023-12-20T11:51:10;6.7;5.9;4.4;2.5;;;;1.0;57.0;
78535;SPS30;67829;51.968;5.684;2023-12-20T11:53:39;5.4;4.9;3.8;2.3;;;;1.0;52.0;
78535;SPS30;67829;51.968;5.684;2023-12-20T11:56:09;6.0;5.4;4.2;2.6;;;;1.0;48.0;
78535;SPS30;67829;51.968;5.684;2023-12-20T11:58:40;5.5;4.9;3.8;2.3;;;;1.0;42.0;
78535;SPS30;67829;51.968;5.684;2023-12-20T12:01:10;5.2;4.7;3.6;2.2;;;;1.0;41.0;
78535;SPS30;67829;51.968;5.684;2023-12-20T12:03:38;5.5;5.0;3.8;2.3;;;;1.0;40.0;
78535;SPS30;67829;51.968;5.684;2023-12-20T12:06:07;4.9;4.5;3.5;2.2;;;;1.0;37.0;
78535;SPS30;67829;51.968;5.684;2023-12-20T12:08:35;6.9;6.2;4.7;2.8;;;;1.0;38.0;
78535;SPS30;67829;51.968;5.684;2023-12-20T12:11:05;7.2;6.4;4.8;2.7;;;;1.0;39.0;
78535;SPS30;67829;51.968;5.684;2023-12-20T12:13:34;7.4;6.7;5.0;2.9;;;;1.0;41.0;
78535;SPS30;67829;51.968;5.684;2023-12-20T12:16:03;6.0;5.4;4.0;2.3;;;;1.0;42.0;
78535;SPS30;67829;51.968;5.684;2023-12-20T12:18:32;7.0;6.3;4.7;2.7;;;;1.0;45.0;
78535;SPS30;67829;51.968;5.684;2023-12-20T12:21:02;6.2;5.6;4.2;2.5;;;;1.0;57.0;